sensor_id;sensor_type;location;lat;lon;timestamp;P1;durP1;ratioP1;P2;durP2;ratioP2
3217;SDS011;1621;49.702;8.618;2023-05-10T00:01:26;2.10;;;0.90;;
3217;SDS011;1621;49.702;8.618;2023-05-10T00:03:52;7.70;;;0.90;;
3217;SDS011;1621;49.702;8.618;2023-05-10T00:06:19;3.93;;;1.10;;
3217;SDS011;1621;49.702;8.618;2023-05-10T00:08:45;3.30;;;1.10;;
3217;SDS011;1621;49.702;8.618;2023-05-10T00:11:11;2.60;;;1.03;;
3217;SDS011;1621;49.702;8.618;2023-05-10T00:13:37;3.13;;;1.00;;
3217;SDS011;1621;49.702;8.618;2023-05-10T00:16:04;2.70;;;1.20;;
3217;SDS011;1621;49.702;8.618;2023-05-10T00:18:31;3.30;;;1.40;;
3217;SDS011;1621;49.702;8.618;2023-05-10T00:20:58;2.50;;;1.17;;
3217;SDS011;1621;49.702;8.618;2023-05-10T00:23:24;2.57;;;1.10;;
3217;SDS011;1621;49.702;8.618;2023-05-10T00:25:50;2.70;;;1.30;;
3217;SDS011;1621;49.702;8.618;2023-05-10T00:28:16;2.73;;;1.20;;
3217;SDS011;1621;49.702;8.618;2023-05-10T00:30:43;3.53;;;1.20;;
3217;SDS011;1621;49.702;8.618;2023-05-10T00:33:09;2.77;;;1.20;;
3217;SDS011;1621;49.702;8.618;2023-05-10T00:35:37;6.40;;;1.43;;
3217;SDS011;1621;49.702;8.618;2023-05-10T00:38:04;3.17;;;1.43;;
3217;SDS011;1621;49.702;8.618;2023-05-10T00:40:30;2.40;;;1.10;;
3217;SDS011;1621;49.702;8.618;2023-05-10T00:42:56;4.13;;;1.40;;
3217;SDS011;1621;49.702;8.618;2023-05-10T00:45:23;2.83;;;1.30;;
3217;SDS011;1621;49.702;8.618;2023-05-10T00:47:49;2.40;;;1.20;;
3217;SDS011;1621;49.702;8.618;2023-05-10T00:50:17;2.80;;;1.40;;
3217;SDS011;1621;49.702;8.618;2023-05-10T00:52:44;2.70;;;1.40;;
3217;SDS011;1621;49.702;8.618;2023-05-10T00:55:11;3.57;;;1.67;;
3217;SDS011;1621;49.702;8.618;2023-05-10T00:57:37;4.80;;;1.40;;
3217;SDS011;1621;49.702;8.618;2023-05-10T01:00:04;2.50;;;1.30;;
3217;SDS011;1621;49.702;8.618;2023-05-10T01:02:30;2.87;;;1.40;;
3217;SDS011;1621;49.702;8.618;2023-05-10T01:04:57;2.90;;;1.60;;
3217;SDS011;1621;49.702;8.618;2023-05-10T01:07:23;2.87;;;1.47;;
3217;SDS011;1621;49.702;8.618;2023-05-10T01:09:51;2.90;;;1.60;;
3217;SDS011;1621;49.702;8.618;2023-05-10T01:12:17;3.00;;;1.57;;
3217;SDS011;1621;49.702;8.618;2023-05-10T01:14:43;4.37;;;1.40;;
3217;SDS011;1621;49.702;8.618;2023-05-10T01:17:09;2.93;;;1.50;;
3217;SDS011;1621;49.702;8.618;2023-05-10T01:19:37;2.53;;;1.27;;
3217;SDS011;1621;49.702;8.618;2023-05-10T01:22:05;3.20;;;1.70;;
3217;SDS011;1621;49.702;8.618;2023-05-10T01:24:40;3.00;;;1.60;;
3217;SDS011;1621;49.702;8.618;2023-05-10T01:27:17;4.97;;;1.43;;
3217;SDS011;1621;49.702;8.618;2023-05-10T01:29:48;2.63;;;1.30;;
3217;SDS011;1621;49.702;8.618;2023-05-10T01:32:21;3.20;;;1.77;;
3217;SDS011;1621;49.702;8.618;2023-05-10T01:34:54;3.50;;;1.47;;
3217;SDS011;1621;49.702;8.618;2023-05-10T01:37:21;2.50;;;1.30;;
3217;SDS011;1621;49.702;8.618;2023-05-10T01:39:49;3.17;;;1.80;;
3217;SDS011;1621;49.702;8.618;2023-05-10T01:42:20;2.97;;;1.70;;
3217;SDS011;1621;49.702;8.618;2023-05-10T01:44:49;2.73;;;1.63;;
3217;SDS011;1621;49.702;8.618;2023-05-10T01:47:17;3.70;;;1.70;;
3217;SDS011;1621;49.702;8.618;2023-05-10T01:49:49;3.10;;;1.70;;
3217;SDS011;1621;49.702;8.618;2023-05-10T01:52:16;3.80;;;2.07;;
3217;SDS011;1621;49.702;8.618;2023-05-10T01:54:44;2.87;;;1.53;;
3217;SDS011;1621;49.702;8.618;2023-05-10T01:57:15;2.77;;;1.40;;
3217;SDS011;1621;49.702;8.618;2023-05-10T01:59:43;4.00;;;1.90;;
3217;SDS011;1621;49.702;8.618;2023-05-10T02:02:09;3.10;;;1.70;;
3217;SDS011;1621;49.702;8.618;2023-05-10T02:04:37;3.30;;;1.60;;
3217;SDS011;1621;49.702;8.618;2023-05-10T02:07:05;3.47;;;2.40;;
3217;SDS011;1621;49.702;8.618;2023-05-10T02:09:32;3.00;;;1.90;;
3217;SDS011;1621;49.702;8.618;2023-05-10T02:11:59;2.77;;;1.50;;
3217;SDS011;1621;49.702;8.618;2023-05-10T02:14:28;3.30;;;1.97;;
3217;SDS011;1621;49.702;8.618;2023-05-10T02:16:55;3.27;;;1.80;;
3217;SDS011;1621;49.702;8.618;2023-05-10T02:19:21;3.20;;;2.00;;
3217;SDS011;1621;49.702;8.618;2023-05-10T02:21:48;3.07;;;2.00;;
3217;SDS011;1621;49.702;8.618;2023-05-10T02:24:17;4.17;;;2.27;;
3217;SDS011;1621;49.702;8.618;2023-05-10T02:26:44;3.60;;;2.20;;
3217;SDS011;1621;49.702;8.618;2023-05-10T02:29:11;3.23;;;1.83;;
3217;SDS011;1621;49.702;8.618;2023-05-10T02:31:38;4.30;;;2.77;;
3217;SDS011;1621;49.702;8.618;2023-05-10T02:34:08;3.57;;;2.03;;
3217;SDS011;1621;49.702;8.618;2023-05-10T02:36:35;6.07;;;2.40;;
3217;SDS011;1621;49.702;8.618;2023-05-10T02:39:02;3.93;;;2.03;;
3217;SDS011;1621;49.702;8.618;2023-05-10T02:41:31;3.67;;;2.13;;
3217;SDS011;1621;49.702;8.618;2023-05-10T02:43:59;3.33;;;2.00;;
3217;SDS011;1621;49.702;8.618;2023-05-10T02:46:25;3.27;;;2.00;;
3217;SDS011;1621;49.702;8.618;2023-05-10T02:48:52;5.07;;;1.80;;
3217;SDS011;1621;49.702;8.618;2023-05-10T02:51:18;3.10;;;2.00;;
3217;SDS011;1621;49.702;8.618;2023-05-10T02:53:46;3.40;;;2.10;;
3217;SDS011;1621;49.702;8.618;2023-05-10T02:56:13;4.20;;;2.13;;
3217;SDS011;1621;49.702;8.618;2023-05-10T02:58:41;3.63;;;2.20;;
3217;SDS011;1621;49.702;8.618;2023-05-10T03:01:08;3.80;;;1.93;;
3217;SDS011;1621;49.702;8.618;2023-05-10T03:03:34;4.30;;;2.00;;
3217;SDS011;1621;49.702;8.618;2023-05-10T03:06:00;2.90;;;1.80;;
3217;SDS011;1621;49.702;8.618;2023-05-10T03:08:26;4.10;;;2.03;;
3217;SDS011;1621;49.702;8.618;2023-05-10T03:10:55;4.00;;;1.90;;
3217;SDS011;1621;49.702;8.618;2023-05-10T03:13:25;6.40;;;2.00;;
3217;SDS011;1621;49.702;8.618;2023-05-10T03:15:57;3.30;;;1.87;;
3217;SDS011;1621;49.702;8.618;2023-05-10T03:18:28;8.73;;;2.17;;
3217;SDS011;1621;49.702;8.618;2023-05-10T03:20:55;3.40;;;2.20;;
3217;SDS011;1621;49.702;8.618;2023-05-10T03:23:24;3.37;;;2.10;;
3217;SDS011;1621;49.702;8.618;2023-05-10T03:25:52;5.30;;;2.17;;
3217;SDS011;1621;49.702;8.618;2023-05-10T03:28:18;5.60;;;2.23;;
3217;SDS011;1621;49.702;8.618;2023-05-10T03:30:46;4.00;;;2.30;;
3217;SDS011;1621;49.702;8.618;2023-05-10T03:33:14;4.13;;;2.73;;
3217;SDS011;1621;49.702;8.618;2023-05-10T03:35:40;4.53;;;2.40;;
3217;SDS011;1621;49.702;8.618;2023-05-10T03:38:06;4.63;;;2.73;;
3217;SDS011;1621;49.702;8.618;2023-05-10T03:40:33;5.10;;;3.07;;
3217;SDS011;1621;49.702;8.618;2023-05-10T03:42:59;3.93;;;2.80;;
3217;SDS011;1621;49.702;8.618;2023-05-10T03:45:25;4.07;;;2.87;;
3217;SDS011;1621;49.702;8.618;2023-05-10T03:47:52;4.20;;;2.77;;
3217;SDS011;1621;49.702;8.618;2023-05-10T03:50:20;3.30;;;2.30;;
3217;SDS011;1621;49.702;8.618;2023-05-10T03:52:46;4.70;;;2.70;;
3217;SDS011;1621;49.702;8.618;2023-05-10T03:55:12;3.50;;;2.47;;
3217;SDS011;1621;49.702;8.618;2023-05-10T03:57:39;4.50;;;2.70;;
3217;SDS011;1621;49.702;8.618;2023-05-10T04:00:06;5.13;;;2.67;;
3217;SDS011;1621;49.702;8.618;2023-05-10T04:02:33;5.53;;;2.87;;
3217;SDS011;1621;49.702;8.618;2023-05-10T04:04:59;6.80;;;3.10;;
3217;SDS011;1621;49.702;8.618;2023-05-10T04:07:27;5.10;;;2.57;;
3217;SDS011;1621;49.702;8.618;2023-05-10T04:09:54;3.73;;;2.30;;
3217;SDS011;1621;49.702;8.618;2023-05-10T04:12:20;4.77;;;3.00;;
3217;SDS011;1621;49.702;8.618;2023-05-10T04:14:46;4.60;;;3.10;;
3217;SDS011;1621;49.702;8.618;2023-05-10T04:17:12;3.50;;;2.50;;
3217;SDS011;1621;49.702;8.618;2023-05-10T04:19:39;3.80;;;2.87;;
3217;SDS011;1621;49.702;8.618;2023-05-10T04:22:05;3.93;;;2.73;;
3217;SDS011;1621;49.702;8.618;2023-05-10T04:24:33;3.77;;;2.77;;
3217;SDS011;1621;49.702;8.618;2023-05-10T04:26:59;7.17;;;3.57;;
3217;SDS011;1621;49.702;8.618;2023-05-10T04:29:25;5.10;;;3.10;;
3217;SDS011;1621;49.702;8.618;2023-05-10T04:31:52;5.63;;;3.70;;
3217;SDS011;1621;49.702;8.618;2023-05-10T04:34:19;6.27;;;3.70;;
3217;SDS011;1621;49.702;8.618;2023-05-10T04:36:46;4.83;;;3.23;;
3217;SDS011;1621;49.702;8.618;2023-05-10T04:39:12;5.30;;;3.13;;
3217;SDS011;1621;49.702;8.618;2023-05-10T04:41:40;4.77;;;3.07;;
3217;SDS011;1621;49.702;8.618;2023-05-10T04:44:06;4.60;;;3.03;;
3217;SDS011;1621;49.702;8.618;2023-05-10T04:46:32;3.80;;;2.80;;
3217;SDS011;1621;49.702;8.618;2023-05-10T04:48:58;5.40;;;3.20;;
3217;SDS011;1621;49.702;8.618;2023-05-10T04:51:25;8.17;;;3.70;;
3217;SDS011;1621;49.702;8.618;2023-05-10T04:53:51;5.53;;;3.40;;
3217;SDS011;1621;49.702;8.618;2023-05-10T04:56:17;4.07;;;2.60;;
3217;SDS011;1621;49.702;8.618;2023-05-10T04:58:45;5.60;;;3.60;;
3217;SDS011;1621;49.702;8.618;2023-05-10T05:01:11;4.67;;;3.00;;
3217;SDS011;1621;49.702;8.618;2023-05-10T05:03:37;6.13;;;3.20;;
3217;SDS011;1621;49.702;8.618;2023-05-10T05:06:04;5.90;;;3.30;;
3217;SDS011;1621;49.702;8.618;2023-05-10T05:08:30;4.20;;;3.00;;
3217;SDS011;1621;49.702;8.618;2023-05-10T05:10:56;6.43;;;3.90;;
3217;SDS011;1621;49.702;8.618;2023-05-10T05:13:22;3.60;;;2.60;;
3217;SDS011;1621;49.702;8.618;2023-05-10T05:15:50;4.00;;;2.80;;
3217;SDS011;1621;49.702;8.618;2023-05-10T05:18:16;6.57;;;2.87;;
3217;SDS011;1621;49.702;8.618;2023-05-10T05:20:43;4.60;;;3.13;;
3217;SDS011;1621;49.702;8.618;2023-05-10T05:23:09;4.57;;;2.80;;
3217;SDS011;1621;49.702;8.618;2023-05-10T05:25:35;4.77;;;3.00;;
3217;SDS011;1621;49.702;8.618;2023-05-10T05:28:01;7.00;;;2.80;;
3217;SDS011;1621;49.702;8.618;2023-05-10T05:30:28;4.70;;;3.60;;
3217;SDS011;1621;49.702;8.618;2023-05-10T05:32:55;4.27;;;2.97;;
3217;SDS011;1621;49.702;8.618;2023-05-10T05:35:22;6.00;;;3.60;;
3217;SDS011;1621;49.702;8.618;2023-05-10T05:37:48;5.30;;;3.77;;
3217;SDS011;1621;49.702;8.618;2023-05-10T05:40:14;6.33;;;3.40;;
3217;SDS011;1621;49.702;8.618;2023-05-10T05:42:40;6.53;;;3.37;;
3217;SDS011;1621;49.702;8.618;2023-05-10T05:45:07;4.67;;;2.97;;
3217;SDS011;1621;49.702;8.618;2023-05-10T05:47:37;5.23;;;3.43;;
3217;SDS011;1621;49.702;8.618;2023-05-10T05:50:05;8.93;;;3.80;;
3217;SDS011;1621;49.702;8.618;2023-05-10T05:52:32;4.47;;;3.53;;
3217;SDS011;1621;49.702;8.618;2023-05-10T05:54:58;4.77;;;3.67;;
3217;SDS011;1621;49.702;8.618;2023-05-10T05:57:25;4.70;;;3.70;;
3217;SDS011;1621;49.702;8.618;2023-05-10T05:59:51;6.53;;;4.30;;
3217;SDS011;1621;49.702;8.618;2023-05-10T06:02:17;7.03;;;4.47;;
3217;SDS011;1621;49.702;8.618;2023-05-10T06:04:44;7.20;;;4.13;;
3217;SDS011;1621;49.702;8.618;2023-05-10T06:07:11;5.33;;;4.10;;
3217;SDS011;1621;49.702;8.618;2023-05-10T06:09:37;6.80;;;3.83;;
3217;SDS011;1621;49.702;8.618;2023-05-10T06:12:04;6.33;;;4.40;;
3217;SDS011;1621;49.702;8.618;2023-05-10T06:14:30;8.07;;;4.03;;
3217;SDS011;1621;49.702;8.618;2023-05-10T06:16:56;4.73;;;3.43;;
3217;SDS011;1621;49.702;8.618;2023-05-10T06:19:24;9.90;;;4.20;;
3217;SDS011;1621;49.702;8.618;2023-05-10T06:21:51;5.20;;;3.67;;
3217;SDS011;1621;49.702;8.618;2023-05-10T06:24:18;4.80;;;3.80;;
3217;SDS011;1621;49.702;8.618;2023-05-10T06:26:45;4.40;;;3.57;;
3217;SDS011;1621;49.702;8.618;2023-05-10T06:29:11;5.30;;;3.60;;
3217;SDS011;1621;49.702;8.618;2023-05-10T06:31:37;8.40;;;3.67;;
3217;SDS011;1621;49.702;8.618;2023-05-10T06:34:03;4.77;;;3.43;;
3217;SDS011;1621;49.702;8.618;2023-05-10T06:36:30;7.60;;;4.00;;
3217;SDS011;1621;49.702;8.618;2023-05-10T06:38:56;13.50;;;4.50;;
3217;SDS011;1621;49.702;8.618;2023-05-10T06:41:23;6.90;;;3.67;;
3217;SDS011;1621;49.702;8.618;2023-05-10T06:43:50;5.50;;;4.30;;
3217;SDS011;1621;49.702;8.618;2023-05-10T06:46:16;5.53;;;3.57;;
3217;SDS011;1621;49.702;8.618;2023-05-10T06:48:42;6.17;;;4.60;;
3217;SDS011;1621;49.702;8.618;2023-05-10T06:51:09;6.20;;;4.20;;
3217;SDS011;1621;49.702;8.618;2023-05-10T06:53:35;6.63;;;4.73;;
3217;SDS011;1621;49.702;8.618;2023-05-10T06:56:02;6.37;;;4.20;;
3217;SDS011;1621;49.702;8.618;2023-05-10T06:58:30;10.10;;;4.93;;
3217;SDS011;1621;49.702;8.618;2023-05-10T07:01:01;9.33;;;4.50;;
3217;SDS011;1621;49.702;8.618;2023-05-10T07:03:27;6.67;;;4.77;;
3217;SDS011;1621;49.702;8.618;2023-05-10T07:05:53;7.10;;;4.57;;
3217;SDS011;1621;49.702;8.618;2023-05-10T07:08:20;6.17;;;4.40;;
3217;SDS011;1621;49.702;8.618;2023-05-10T07:10:46;6.80;;;4.90;;
3217;SDS011;1621;49.702;8.618;2023-05-10T07:13:12;5.67;;;4.00;;
3217;SDS011;1621;49.702;8.618;2023-05-10T07:15:40;5.20;;;4.20;;
3217;SDS011;1621;49.702;8.618;2023-05-10T07:18:07;6.63;;;3.80;;
3217;SDS011;1621;49.702;8.618;2023-05-10T07:20:33;5.30;;;4.07;;
3217;SDS011;1621;49.702;8.618;2023-05-10T07:22:59;7.20;;;4.50;;
3217;SDS011;1621;49.702;8.618;2023-05-10T07:25:26;11.13;;;4.53;;
3217;SDS011;1621;49.702;8.618;2023-05-10T07:27:52;5.27;;;4.07;;
3217;SDS011;1621;49.702;8.618;2023-05-10T07:30:18;5.10;;;4.07;;
3217;SDS011;1621;49.702;8.618;2023-05-10T07:32:46;6.83;;;4.90;;
3217;SDS011;1621;49.702;8.618;2023-05-10T07:35:12;5.43;;;4.27;;
3217;SDS011;1621;49.702;8.618;2023-05-10T07:37:38;5.83;;;4.60;;
3217;SDS011;1621;49.702;8.618;2023-05-10T07:40:05;5.83;;;4.20;;
3217;SDS011;1621;49.702;8.618;2023-05-10T07:42:32;6.70;;;5.70;;
3217;SDS011;1621;49.702;8.618;2023-05-10T07:44:58;7.43;;;5.07;;
3217;SDS011;1621;49.702;8.618;2023-05-10T07:47:24;6.00;;;4.60;;
3217;SDS011;1621;49.702;8.618;2023-05-10T07:49:52;7.83;;;4.97;;
3217;SDS011;1621;49.702;8.618;2023-05-10T07:52:18;7.50;;;5.50;;
3217;SDS011;1621;49.702;8.618;2023-05-10T07:54:44;6.37;;;4.87;;
3217;SDS011;1621;49.702;8.618;2023-05-10T07:57:11;6.63;;;5.13;;
3217;SDS011;1621;49.702;8.618;2023-05-10T07:59:39;8.10;;;4.97;;
3217;SDS011;1621;49.702;8.618;2023-05-10T08:02:06;8.73;;;5.67;;
3217;SDS011;1621;49.702;8.618;2023-05-10T08:04:32;5.47;;;4.23;;
3217;SDS011;1621;49.702;8.618;2023-05-10T08:07:00;8.60;;;5.20;;
3217;SDS011;1621;49.702;8.618;2023-05-10T08:09:26;10.20;;;5.27;;
3217;SDS011;1621;49.702;8.618;2023-05-10T08:11:52;6.03;;;4.50;;
3217;SDS011;1621;49.702;8.618;2023-05-10T08:14:18;5.40;;;4.67;;
3217;SDS011;1621;49.702;8.618;2023-05-10T08:16:45;7.33;;;4.70;;
3217;SDS011;1621;49.702;8.618;2023-05-10T08:19:11;7.17;;;4.50;;
3217;SDS011;1621;49.702;8.618;2023-05-10T08:21:37;5.80;;;4.37;;
3217;SDS011;1621;49.702;8.618;2023-05-10T08:24:06;7.20;;;4.40;;
3217;SDS011;1621;49.702;8.618;2023-05-10T08:26:33;5.37;;;3.90;;
3217;SDS011;1621;49.702;8.618;2023-05-10T08:28:59;6.87;;;3.50;;
3217;SDS011;1621;49.702;8.618;2023-05-10T08:31:25;4.57;;;3.07;;
3217;SDS011;1621;49.702;8.618;2023-05-10T08:33:51;4.57;;;3.07;;
3217;SDS011;1621;49.702;8.618;2023-05-10T08:36:18;4.10;;;2.43;;
3217;SDS011;1621;49.702;8.618;2023-05-10T08:38:46;5.43;;;2.47;;
3217;SDS011;1621;49.702;8.618;2023-05-10T08:41:14;3.10;;;1.67;;
3217;SDS011;1621;49.702;8.618;2023-05-10T08:43:40;3.10;;;1.60;;
3217;SDS011;1621;49.702;8.618;2023-05-10T08:46:11;4.03;;;1.77;;
3217;SDS011;1621;49.702;8.618;2023-05-10T08:48:39;2.80;;;1.67;;
3217;SDS011;1621;49.702;8.618;2023-05-10T08:51:05;2.90;;;1.60;;
3217;SDS011;1621;49.702;8.618;2023-05-10T08:53:33;3.63;;;2.00;;
3217;SDS011;1621;49.702;8.618;2023-05-10T08:56:01;4.67;;;1.50;;
3217;SDS011;1621;49.702;8.618;2023-05-10T08:58:29;2.90;;;1.77;;
3217;SDS011;1621;49.702;8.618;2023-05-10T09:00:55;3.60;;;1.93;;
3217;SDS011;1621;49.702;8.618;2023-05-10T09:03:22;3.00;;;1.10;;
3217;SDS011;1621;49.702;8.618;2023-05-10T09:05:49;2.70;;;1.30;;
3217;SDS011;1621;49.702;8.618;2023-05-10T09:08:15;2.63;;;1.37;;
3217;SDS011;1621;49.702;8.618;2023-05-10T09:10:42;5.07;;;1.30;;
3217;SDS011;1621;49.702;8.618;2023-05-10T09:13:09;3.80;;;1.77;;
3217;SDS011;1621;49.702;8.618;2023-05-10T09:15:37;6.90;;;1.90;;
3217;SDS011;1621;49.702;8.618;2023-05-10T09:18:03;3.53;;;1.30;;
3217;SDS011;1621;49.702;8.618;2023-05-10T09:20:29;3.10;;;1.30;;
3217;SDS011;1621;49.702;8.618;2023-05-10T09:22:56;2.47;;;1.30;;
3217;SDS011;1621;49.702;8.618;2023-05-10T09:25:22;6.23;;;1.23;;
3217;SDS011;1621;49.702;8.618;2023-05-10T09:27:48;3.87;;;1.13;;
3217;SDS011;1621;49.702;8.618;2023-05-10T09:30:15;3.23;;;1.07;;
3217;SDS011;1621;49.702;8.618;2023-05-10T09:32:44;2.30;;;1.13;;
3217;SDS011;1621;49.702;8.618;2023-05-10T09:35:11;3.13;;;1.30;;
3217;SDS011;1621;49.702;8.618;2023-05-10T09:37:38;4.30;;;1.30;;
3217;SDS011;1621;49.702;8.618;2023-05-10T09:40:06;4.53;;;1.17;;
3217;SDS011;1621;49.702;8.618;2023-05-10T09:42:33;5.00;;;1.30;;
3217;SDS011;1621;49.702;8.618;2023-05-10T09:45:00;2.77;;;1.47;;
3217;SDS011;1621;49.702;8.618;2023-05-10T09:47:26;3.10;;;1.50;;
3217;SDS011;1621;49.702;8.618;2023-05-10T09:49:54;2.70;;;1.30;;
3217;SDS011;1621;49.702;8.618;2023-05-10T09:52:22;5.53;;;1.40;;
3217;SDS011;1621;49.702;8.618;2023-05-10T09:54:52;3.07;;;1.67;;
3217;SDS011;1621;49.702;8.618;2023-05-10T09:57:19;6.07;;;1.37;;
3217;SDS011;1621;49.702;8.618;2023-05-10T09:59:46;2.57;;;1.43;;
3217;SDS011;1621;49.702;8.618;2023-05-10T10:02:12;3.17;;;1.57;;
3217;SDS011;1621;49.702;8.618;2023-05-10T10:04:39;3.27;;;1.40;;
3217;SDS011;1621;49.702;8.618;2023-05-10T10:07:07;2.77;;;1.50;;
3217;SDS011;1621;49.702;8.618;2023-05-10T10:09:33;2.63;;;1.40;;
3217;SDS011;1621;49.702;8.618;2023-05-10T10:12:00;3.30;;;1.60;;
3217;SDS011;1621;49.702;8.618;2023-05-10T10:14:27;3.83;;;1.73;;
3217;SDS011;1621;49.702;8.618;2023-05-10T10:16:54;3.77;;;1.50;;
3217;SDS011;1621;49.702;8.618;2023-05-10T10:19:21;3.50;;;1.90;;
3217;SDS011;1621;49.702;8.618;2023-05-10T10:21:47;2.70;;;1.50;;
3217;SDS011;1621;49.702;8.618;2023-05-10T10:24:15;8.50;;;1.93;;
3217;SDS011;1621;49.702;8.618;2023-05-10T10:26:41;2.33;;;1.30;;
3217;SDS011;1621;49.702;8.618;2023-05-10T10:29:10;3.77;;;2.10;;
3217;SDS011;1621;49.702;8.618;2023-05-10T10:31:40;4.83;;;1.87;;
3217;SDS011;1621;49.702;8.618;2023-05-10T10:34:08;4.10;;;2.10;;
3217;SDS011;1621;49.702;8.618;2023-05-10T10:36:42;2.50;;;1.40;;
3217;SDS011;1621;49.702;8.618;2023-05-10T10:39:09;3.30;;;1.90;;
3217;SDS011;1621;49.702;8.618;2023-05-10T10:41:38;5.30;;;1.83;;
3217;SDS011;1621;49.702;8.618;2023-05-10T10:47:00;2.93;;;1.80;;
3217;SDS011;1621;49.702;8.618;2023-05-10T10:49:27;4.73;;;1.93;;
3217;SDS011;1621;49.702;8.618;2023-05-10T10:52:12;4.67;;;2.07;;
3217;SDS011;1621;49.702;8.618;2023-05-10T10:54:39;3.33;;;1.97;;
3217;SDS011;1621;49.702;8.618;2023-05-10T10:57:11;2.70;;;1.40;;
3217;SDS011;1621;49.702;8.618;2023-05-10T10:59:41;3.43;;;1.77;;
3217;SDS011;1621;49.702;8.618;2023-05-10T11:02:07;3.33;;;1.50;;
3217;SDS011;1621;49.702;8.618;2023-05-10T11:04:41;4.23;;;1.50;;
3217;SDS011;1621;49.702;8.618;2023-05-10T11:07:16;2.57;;;1.40;;
3217;SDS011;1621;49.702;8.618;2023-05-10T11:09:43;3.27;;;1.33;;
3217;SDS011;1621;49.702;8.618;2023-05-10T11:12:09;2.97;;;1.27;;
3217;SDS011;1621;49.702;8.618;2023-05-10T11:14:37;2.90;;;1.40;;
3217;SDS011;1621;49.702;8.618;2023-05-10T11:17:07;3.13;;;1.10;;
3217;SDS011;1621;49.702;8.618;2023-05-10T11:20:02;6.93;;;1.23;;
3217;SDS011;1621;49.702;8.618;2023-05-10T11:22:29;2.40;;;1.10;;
3217;SDS011;1621;49.702;8.618;2023-05-10T11:24:56;4.47;;;1.60;;
3217;SDS011;1621;49.702;8.618;2023-05-10T11:27:23;4.27;;;0.93;;
3217;SDS011;1621;49.702;8.618;2023-05-10T11:29:52;2.57;;;1.13;;
3217;SDS011;1621;49.702;8.618;2023-05-10T11:32:18;2.50;;;1.20;;
3217;SDS011;1621;49.702;8.618;2023-05-10T11:34:46;2.37;;;1.30;;
3217;SDS011;1621;49.702;8.618;2023-05-10T11:37:13;6.93;;;1.40;;
3217;SDS011;1621;49.702;8.618;2023-05-10T11:39:45;2.77;;;1.40;;
3217;SDS011;1621;49.702;8.618;2023-05-10T11:42:11;2.57;;;1.37;;
3217;SDS011;1621;49.702;8.618;2023-05-10T11:44:38;3.97;;;1.30;;
3217;SDS011;1621;49.702;8.618;2023-05-10T11:47:07;2.30;;;1.13;;
3217;SDS011;1621;49.702;8.618;2023-05-10T11:49:34;3.10;;;1.13;;
3217;SDS011;1621;49.702;8.618;2023-05-10T11:52:03;2.20;;;0.90;;
3217;SDS011;1621;49.702;8.618;2023-05-10T11:54:30;3.60;;;1.20;;
3217;SDS011;1621;49.702;8.618;2023-05-10T11:56:56;4.50;;;1.40;;
3217;SDS011;1621;49.702;8.618;2023-05-10T11:59:22;4.00;;;1.40;;
3217;SDS011;1621;49.702;8.618;2023-05-10T12:01:48;2.30;;;1.20;;
3217;SDS011;1621;49.702;8.618;2023-05-10T12:04:16;2.50;;;0.90;;
3217;SDS011;1621;49.702;8.618;2023-05-10T12:06:42;2.70;;;1.20;;
3217;SDS011;1621;49.702;8.618;2023-05-10T12:09:10;2.70;;;1.03;;
3217;SDS011;1621;49.702;8.618;2023-05-10T12:11:37;2.10;;;1.03;;
3217;SDS011;1621;49.702;8.618;2023-05-10T12:14:04;2.40;;;1.20;;
3217;SDS011;1621;49.702;8.618;2023-05-10T12:16:30;2.73;;;1.20;;
3217;SDS011;1621;49.702;8.618;2023-05-10T12:18:57;2.60;;;1.10;;
3217;SDS011;1621;49.702;8.618;2023-05-10T12:21:25;2.67;;;1.23;;
3217;SDS011;1621;49.702;8.618;2023-05-10T12:23:51;3.47;;;1.23;;
3217;SDS011;1621;49.702;8.618;2023-05-10T12:26:18;3.20;;;1.43;;
3217;SDS011;1621;49.702;8.618;2023-05-10T12:28:47;7.73;;;1.27;;
3217;SDS011;1621;49.702;8.618;2023-05-10T12:31:13;3.97;;;1.30;;
3217;SDS011;1621;49.702;8.618;2023-05-10T12:33:41;2.80;;;1.17;;
3217;SDS011;1621;49.702;8.618;2023-05-10T12:36:08;2.67;;;1.00;;
3217;SDS011;1621;49.702;8.618;2023-05-10T12:38:36;2.70;;;1.13;;
3217;SDS011;1621;49.702;8.618;2023-05-10T12:41:03;5.57;;;1.33;;
3217;SDS011;1621;49.702;8.618;2023-05-10T12:43:30;5.23;;;1.17;;
3217;SDS011;1621;49.702;8.618;2023-05-10T12:45:56;3.47;;;1.60;;
3217;SDS011;1621;49.702;8.618;2023-05-10T12:48:24;2.73;;;1.20;;
3217;SDS011;1621;49.702;8.618;2023-05-10T12:50:50;2.90;;;1.43;;
3217;SDS011;1621;49.702;8.618;2023-05-10T12:53:16;4.40;;;1.40;;
3217;SDS011;1621;49.702;8.618;2023-05-10T12:55:44;5.80;;;1.90;;
3217;SDS011;1621;49.702;8.618;2023-05-10T12:58:10;4.20;;;1.60;;
3217;SDS011;1621;49.702;8.618;2023-05-10T13:00:37;3.50;;;1.20;;
3217;SDS011;1621;49.702;8.618;2023-05-10T13:03:03;4.57;;;2.10;;
3217;SDS011;1621;49.702;8.618;2023-05-10T13:05:30;6.00;;;1.57;;
3217;SDS011;1621;49.702;8.618;2023-05-10T13:07:56;3.57;;;1.70;;
3217;SDS011;1621;49.702;8.618;2023-05-10T13:10:22;6.27;;;1.20;;
3217;SDS011;1621;49.702;8.618;2023-05-10T13:12:51;4.50;;;1.33;;
3217;SDS011;1621;49.702;8.618;2023-05-10T13:15:17;3.73;;;1.43;;
3217;SDS011;1621;49.702;8.618;2023-05-10T13:17:43;4.20;;;1.60;;
3217;SDS011;1621;49.702;8.618;2023-05-10T13:20:10;5.23;;;1.40;;
3217;SDS011;1621;49.702;8.618;2023-05-10T13:22:36;5.30;;;1.13;;
3217;SDS011;1621;49.702;8.618;2023-05-10T13:25:03;5.73;;;1.70;;
3217;SDS011;1621;49.702;8.618;2023-05-10T13:27:29;3.83;;;1.20;;
3217;SDS011;1621;49.702;8.618;2023-05-10T13:29:57;3.53;;;1.47;;
3217;SDS011;1621;49.702;8.618;2023-05-10T13:32:24;4.83;;;1.47;;
3217;SDS011;1621;49.702;8.618;2023-05-10T13:34:50;4.37;;;1.40;;
3217;SDS011;1621;49.702;8.618;2023-05-10T13:37:16;5.23;;;1.50;;
3217;SDS011;1621;49.702;8.618;2023-05-10T13:39:43;5.33;;;1.30;;
3217;SDS011;1621;49.702;8.618;2023-05-10T13:42:09;6.17;;;1.50;;
3217;SDS011;1621;49.702;8.618;2023-05-10T13:44:35;6.50;;;2.07;;
3217;SDS011;1621;49.702;8.618;2023-05-10T13:47:05;5.17;;;1.43;;
3217;SDS011;1621;49.702;8.618;2023-05-10T13:49:31;4.10;;;1.23;;
3217;SDS011;1621;49.702;8.618;2023-05-10T13:51:58;2.90;;;1.30;;
3217;SDS011;1621;49.702;8.618;2023-05-10T13:54:30;3.40;;;1.43;;
3217;SDS011;1621;49.702;8.618;2023-05-10T13:56:57;3.80;;;1.57;;
3217;SDS011;1621;49.702;8.618;2023-05-10T13:59:24;6.20;;;1.40;;
3217;SDS011;1621;49.702;8.618;2023-05-10T14:01:50;2.87;;;1.23;;
3217;SDS011;1621;49.702;8.618;2023-05-10T14:04:17;3.90;;;1.30;;
3217;SDS011;1621;49.702;8.618;2023-05-10T14:06:44;3.93;;;1.43;;
3217;SDS011;1621;49.702;8.618;2023-05-10T14:09:10;4.03;;;1.20;;
3217;SDS011;1621;49.702;8.618;2023-05-10T14:11:36;2.53;;;1.23;;
3217;SDS011;1621;49.702;8.618;2023-05-10T14:14:06;3.87;;;1.30;;
3217;SDS011;1621;49.702;8.618;2023-05-10T14:16:32;4.73;;;1.30;;
3217;SDS011;1621;49.702;8.618;2023-05-10T14:18:59;2.50;;;1.27;;
3217;SDS011;1621;49.702;8.618;2023-05-10T14:21:26;4.93;;;1.13;;
3217;SDS011;1621;49.702;8.618;2023-05-10T14:23:54;4.30;;;1.60;;
3217;SDS011;1621;49.702;8.618;2023-05-10T14:26:20;5.73;;;1.73;;
3217;SDS011;1621;49.702;8.618;2023-05-10T14:28:46;3.40;;;1.40;;
3217;SDS011;1621;49.702;8.618;2023-05-10T14:31:13;3.27;;;1.20;;
3217;SDS011;1621;49.702;8.618;2023-05-10T14:33:39;3.30;;;1.20;;
3217;SDS011;1621;49.702;8.618;2023-05-10T14:36:06;3.57;;;1.10;;
3217;SDS011;1621;49.702;8.618;2023-05-10T14:38:33;6.10;;;1.23;;
3217;SDS011;1621;49.702;8.618;2023-05-10T14:40:59;4.93;;;1.10;;
3217;SDS011;1621;49.702;8.618;2023-05-10T14:43:26;3.70;;;1.03;;
3217;SDS011;1621;49.702;8.618;2023-05-10T14:45:53;6.47;;;1.40;;
3217;SDS011;1621;49.702;8.618;2023-05-10T14:48:19;2.63;;;1.33;;
3217;SDS011;1621;49.702;8.618;2023-05-10T14:50:46;4.83;;;1.40;;
3217;SDS011;1621;49.702;8.618;2023-05-10T14:53:12;3.30;;;1.20;;
3217;SDS011;1621;49.702;8.618;2023-05-10T14:55:40;2.30;;;1.03;;
3217;SDS011;1621;49.702;8.618;2023-05-10T14:58:06;2.27;;;0.93;;
3217;SDS011;1621;49.702;8.618;2023-05-10T15:00:32;2.70;;;1.00;;
3217;SDS011;1621;49.702;8.618;2023-05-10T15:02:59;4.93;;;1.20;;
3217;SDS011;1621;49.702;8.618;2023-05-10T15:05:25;6.37;;;0.90;;
3217;SDS011;1621;49.702;8.618;2023-05-10T15:07:51;3.10;;;1.00;;
3217;SDS011;1621;49.702;8.618;2023-05-10T15:10:18;2.60;;;0.90;;
3217;SDS011;1621;49.702;8.618;2023-05-10T15:12:45;2.97;;;1.10;;
3217;SDS011;1621;49.702;8.618;2023-05-10T15:15:11;3.10;;;1.30;;
3217;SDS011;1621;49.702;8.618;2023-05-10T15:17:38;3.70;;;1.00;;